createdAt,value
2016-05-05T00:00:59.745Z,21.97
2016-05-05T00:01:59.779Z,22.07
2016-05-05T00:02:59.672Z,22.12
2016-05-05T00:03:59.862Z,22.12
2016-05-05T00:04:59.911Z,22.11
2016-05-05T00:05:59.945Z,22.12
2016-05-05T00:06:59.980Z,22.12
2016-05-05T00:08:00.013Z,22.12
2016-05-05T00:09:00.189Z,22.04
2016-05-05T00:09:59.941Z,22.04
2016-05-05T00:11:00.147Z,22.07
2016-05-05T00:12:00.024Z,22.05
2016-05-05T00:13:00.230Z,22.11
2016-05-05T00:14:00.264Z,22.02
2016-05-05T00:15:00.298Z,22.14
2016-05-05T00:16:00.332Z,22.04
2016-05-05T00:17:00.381Z,22.12
2016-05-05T00:18:00.416Z,22.02
2016-05-05T00:19:00.465Z,22.02
2016-05-05T00:20:00.499Z,22.14
2016-05-05T00:21:00.549Z,22.04
2016-05-05T00:22:00.582Z,22.12
2016-05-05T00:23:00.616Z,22.04
2016-05-05T00:24:00.666Z,22.04
2016-05-05T00:25:00.700Z,22.12
2016-05-05T00:26:00.734Z,22.12
2016-05-05T00:27:00.784Z,22.07
2016-05-05T00:28:00.661Z,22.09
2016-05-05T00:29:00.867Z,22.15
2016-05-05T00:30:00.900Z,21.99
2016-05-05T00:31:00.935Z,22.02
2016-05-05T00:32:00.828Z,22.08
2016-05-05T00:33:01.017Z,22.04
2016-05-05T00:34:01.068Z,22.12
2016-05-05T00:35:01.102Z,22.04
2016-05-05T00:36:01.136Z,22.09
2016-05-05T00:37:01.186Z,22.12
2016-05-05T00:38:01.219Z,22.14
2016-05-05T00:39:01.269Z,22.12
2016-05-05T00:40:01.302Z,22.09
2016-05-05T00:41:01.336Z,22.02
2016-05-05T00:42:01.386Z,21.96
2016-05-05T00:43:01.420Z,21.99
2016-05-05T00:44:01.454Z,22.05
2016-05-05T00:45:01.504Z,22.05
2016-05-05T00:46:01.537Z,21.99
2016-05-05T00:47:01.588Z,22.05
2016-05-05T00:48:01.621Z,22.02
2016-05-05T00:49:01.671Z,21.99
2016-05-05T00:50:01.704Z,22.07
2016-05-05T00:51:01.739Z,22.09
2016-05-05T00:52:01.804Z,21.99
2016-05-05T00:53:01.822Z,22.02
2016-05-05T00:54:02.059Z,22.08
2016-05-05T00:55:01.906Z,22.11
2016-05-05T00:56:01.940Z,22.02
2016-05-05T00:57:01.990Z,22.02
2016-05-05T00:58:01.868Z,21.97
2016-05-05T00:59:02.057Z,22.05
2016-05-05T01:00:02.090Z,22.02
2016-05-05T01:01:02.140Z,22.02
2016-05-05T01:02:02.018Z,22.02
2016-05-05T01:03:02.223Z,22
2016-05-05T01:04:02.258Z,22.07
2016-05-05T01:05:02.292Z,22.07
2016-05-05T01:06:02.342Z,22.04
2016-05-05T01:07:02.391Z,22.05
2016-05-05T01:08:02.409Z,22.05
2016-05-05T01:09:02.474Z,22.05
2016-05-05T01:10:02.508Z,22.02
2016-05-05T01:11:02.386Z,22.05
2016-05-05T01:12:02.576Z,22
2016-05-05T01:13:02.610Z,22.04
2016-05-05T01:14:02.660Z,22.05
2016-05-05T01:15:02.694Z,22.04
2016-05-05T01:16:02.744Z,22.04
2016-05-05T01:17:02.777Z,22.09
2016-05-05T01:18:02.811Z,22
2016-05-05T01:19:02.860Z,22.02
2016-05-05T01:20:02.894Z,22
2016-05-05T01:21:02.944Z,22.02
2016-05-05T01:22:02.979Z,22.05
2016-05-05T01:23:03.027Z,22.02
2016-05-05T01:24:03.312Z,22
2016-05-05T01:25:03.112Z,22
2016-05-05T01:26:03.130Z,22.02
2016-05-05T01:27:03.179Z,22.04
2016-05-05T01:28:03.213Z,22.05
2016-05-05T01:29:03.262Z,22.02
2016-05-05T01:30:03.296Z,22.02
2016-05-05T01:31:03.331Z,21.97
2016-05-05T01:32:03.381Z,22.05
2016-05-05T01:33:03.414Z,22
2016-05-05T01:34:03.464Z,22.05
2016-05-05T01:35:03.342Z,22
2016-05-05T01:36:03.548Z,22.02
2016-05-05T01:37:03.581Z,22
2016-05-05T01:38:03.615Z,22.02
2016-05-05T01:39:03.945Z,21.97
2016-05-05T01:40:03.698Z,21.97
2016-05-05T01:41:03.733Z,22.02
2016-05-05T01:42:03.783Z,22.04
2016-05-05T01:43:03.816Z,22.02
2016-05-05T01:44:03.850Z,22.07
2016-05-05T01:45:03.900Z,22
2016-05-05T01:46:03.933Z,21.99
2016-05-05T01:47:03.966Z,22.02
2016-05-05T01:48:04.016Z,22.07
2016-05-05T01:49:04.051Z,22.08
2016-05-05T01:50:04.116Z,21.94
2016-05-05T01:51:04.135Z,21.97
2016-05-05T01:52:04.189Z,22.05
2016-05-05T01:53:04.281Z,21.97
2016-05-05T01:54:05.139Z,21.99
2016-05-05T01:55:04.450Z,22.02
2016-05-05T01:56:04.526Z,22.02
2016-05-05T01:57:04.589Z,21.97
2016-05-05T01:58:04.654Z,22
2016-05-05T01:59:04.704Z,22.02
2016-05-05T02:00:04.612Z,22.02
2016-05-05T02:01:04.819Z,22.02
2016-05-05T02:02:04.863Z,21.96
2016-05-05T02:03:04.934Z,21.99
2016-05-05T02:04:04.973Z,22.02
2016-05-05T02:05:04.998Z,21.99
2016-05-05T02:06:05.053Z,22
2016-05-05T02:07:05.090Z,22.07
2016-05-05T02:08:05.127Z,21.99
2016-05-05T02:09:05.944Z,22
2016-05-05T02:10:05.214Z,22
2016-05-05T02:11:05.265Z,22
2016-05-05T02:12:05.301Z,22.02
2016-05-05T02:13:05.336Z,22.02
2016-05-05T02:14:05.401Z,22.02
2016-05-05T02:15:05.421Z,22.12
2016-05-05T02:16:05.470Z,22.08
2016-05-05T02:17:05.505Z,22.14
2016-05-05T02:18:05.540Z,22.11
2016-05-05T02:19:05.590Z,22.2
2016-05-05T02:20:05.624Z,22.16
2016-05-05T02:21:05.502Z,22.16
2016-05-05T02:22:05.709Z,22.18
2016-05-05T02:23:05.854Z,22.22
2016-05-05T02:24:05.793Z,22.2
2016-05-05T02:25:05.827Z,22.26
2016-05-05T02:26:05.861Z,22.2
2016-05-05T02:27:05.910Z,22.26
2016-05-05T02:28:05.945Z,22.2
2016-05-05T02:29:05.979Z,22.27
2016-05-05T02:30:06.029Z,22.3
2016-05-05T02:31:06.062Z,22.27
2016-05-05T02:32:06.112Z,22.3
2016-05-05T02:33:06.145Z,22.3
2016-05-05T02:34:06.195Z,22.31
2016-05-05T02:35:06.229Z,22.31
2016-05-05T02:36:06.106Z,22.3
2016-05-05T02:37:06.297Z,22.3
2016-05-05T02:38:06.347Z,22.3
2016-05-05T02:39:06.381Z,22.31
2016-05-05T02:40:06.431Z,22.33
2016-05-05T02:41:06.464Z,22.36
2016-05-05T02:42:06.498Z,22.33
2016-05-05T02:43:06.547Z,22.31
2016-05-05T02:44:06.426Z,22.33
2016-05-05T02:45:06.616Z,22.36
2016-05-05T02:46:06.665Z,22.39
2016-05-05T02:47:06.714Z,22.33
2016-05-05T02:48:06.592Z,22.36
2016-05-05T02:49:06.798Z,22.39
2016-05-05T02:50:06.833Z,22.29
2016-05-05T02:51:06.866Z,22.44
2016-05-05T02:52:06.900Z,22.39
2016-05-05T02:53:06.793Z,22.36
2016-05-05T02:54:06.827Z,22.44
2016-05-05T02:55:07.018Z,22.42
2016-05-05T02:56:07.068Z,22.41
2016-05-05T02:57:07.101Z,22.42
2016-05-05T02:58:06.994Z,22.45
2016-05-05T02:59:07.185Z,22.45
2016-05-05T03:00:07.219Z,22.51
2016-05-05T03:01:07.268Z,22.48
2016-05-05T03:02:07.302Z,22.48
2016-05-05T03:03:07.179Z,22.45
2016-05-05T03:04:07.229Z,22.44
2016-05-05T03:05:07.420Z,22.39
2016-05-05T03:06:07.469Z,22.44
2016-05-05T03:07:07.503Z,22.48
2016-05-05T03:08:07.553Z,22.49
2016-05-05T03:09:07.587Z,22.46
2016-05-05T03:10:07.620Z,22.54
2016-05-05T03:11:07.513Z,22.48
2016-05-05T03:12:07.563Z,22.42
2016-05-05T03:13:07.738Z,22.48
2016-05-05T03:14:07.787Z,22.46
2016-05-05T03:15:07.821Z,22.44
2016-05-05T03:16:07.871Z,22.49
2016-05-05T03:17:07.905Z,22.46
2016-05-05T03:18:07.783Z,22.51
2016-05-05T03:19:07.989Z,22.48
2016-05-05T03:20:08.022Z,22.51
2016-05-05T03:21:07.915Z,22.42
2016-05-05T03:22:08.105Z,22.48
2016-05-05T03:23:08.140Z,22.46
2016-05-05T03:24:08.658Z,22.49
2016-05-05T03:25:08.255Z,22.45
2016-05-05T03:26:08.257Z,22.51
2016-05-05T03:27:08.307Z,22.55
2016-05-05T03:28:08.387Z,22.42
2016-05-05T03:29:08.391Z,22.48
2016-05-05T03:30:08.424Z,22.49
2016-05-05T03:31:08.473Z,22.48
2016-05-05T03:32:08.507Z,22.51
2016-05-05T03:33:08.542Z,22.44
2016-05-05T03:34:08.435Z,22.49
2016-05-05T03:35:08.626Z,22.51
2016-05-05T03:36:08.659Z,22.49
2016-05-05T03:37:08.709Z,22.52
2016-05-05T03:38:08.743Z,22.51
2016-05-05T03:39:08.667Z,22.45
2016-05-05T03:40:08.826Z,22.51
2016-05-05T03:41:08.859Z,22.49
2016-05-05T03:42:08.909Z,22.54
2016-05-05T03:43:08.944Z,22.49
2016-05-05T03:44:08.993Z,22.48
2016-05-05T03:45:09.027Z,22.54
2016-05-05T03:46:09.077Z,22.45
2016-05-05T03:47:09.111Z,22.48
2016-05-05T03:48:09.161Z,22.49
2016-05-05T03:49:09.194Z,22.45
2016-05-05T03:50:09.071Z,22.49
2016-05-05T03:51:09.277Z,22.51
2016-05-05T03:52:09.311Z,22.57
2016-05-05T03:53:09.345Z,22.52
2016-05-05T03:54:09.519Z,22.49
2016-05-05T03:55:09.429Z,22.59
2016-05-05T03:56:09.463Z,22.55
2016-05-05T03:57:09.513Z,22.57
2016-05-05T03:58:09.546Z,22.57
2016-05-05T03:59:09.596Z,22.51
2016-05-05T04:00:09.629Z,22.51
2016-05-05T04:01:09.663Z,22.55
2016-05-05T04:02:09.713Z,22.55
2016-05-05T04:03:09.590Z,22.59
2016-05-05T04:04:09.796Z,22.55
2016-05-05T04:05:09.846Z,22.67
2016-05-05T04:06:09.881Z,22.57
2016-05-05T04:07:09.759Z,22.63
2016-05-05T04:08:09.948Z,22.63
2016-05-05T04:09:10.295Z,22.59
2016-05-05T04:10:10.031Z,22.63
2016-05-05T04:11:10.065Z,22.59
2016-05-05T04:12:10.115Z,22.67
2016-05-05T04:13:10.150Z,22.63
2016-05-05T04:14:10.198Z,22.57
2016-05-05T04:15:10.233Z,22.63
2016-05-05T04:16:10.267Z,22.63
2016-05-05T04:17:10.317Z,22.57
2016-05-05T04:18:10.350Z,22.61
2016-05-05T04:19:10.384Z,22.54
2016-05-05T04:20:10.433Z,22.6
2016-05-05T04:21:10.483Z,22.61
2016-05-05T04:22:10.517Z,22.59
2016-05-05T04:23:10.566Z,22.63
2016-05-05T04:24:10.600Z,22.64
2016-05-05T04:25:10.478Z,22.63
2016-05-05T04:26:10.685Z,22.61
2016-05-05T04:27:10.719Z,22.63
2016-05-05T04:28:10.752Z,22.6
2016-05-05T04:29:10.802Z,22.55
2016-05-05T04:30:10.679Z,22.6
2016-05-05T04:31:10.869Z,22.66
2016-05-05T20:55:50.545Z,21.92
2016-05-05T20:56:50.312Z,21.99
2016-05-05T20:57:50.346Z,21.99
2016-05-05T20:58:50.396Z,22
2016-05-05T20:59:50.431Z,21.99
2016-05-05T21:00:50.480Z,22.08
2016-05-05T21:01:50.514Z,21.94
2016-05-05T21:02:50.548Z,22.05
2016-05-05T21:03:50.597Z,22.02
2016-05-05T21:04:50.647Z,22.02
2016-05-05T21:05:50.680Z,21.97
2016-05-05T21:06:50.715Z,22.02
2016-05-05T21:07:50.748Z,22.09
2016-05-05T21:08:50.626Z,22.05
2016-05-05T21:09:50.847Z,22.08
2016-05-05T21:10:50.913Z,22.08
2016-05-05T21:11:50.900Z,22.04
2016-05-05T21:12:50.950Z,22.02
2016-05-05T21:13:50.983Z,22.02
2016-05-05T21:14:51.017Z,22.05
2016-05-05T21:15:51.083Z,22.12
2016-05-05T21:16:51.101Z,22.08
2016-05-05T21:17:51.135Z,21.99
2016-05-05T21:18:51.200Z,21.99
2016-05-05T21:19:51.218Z,22.09
2016-05-05T21:20:51.268Z,22.16
2016-05-05T21:21:51.302Z,22.12
2016-05-05T21:22:51.335Z,22.05
2016-05-05T21:23:51.385Z,22.14
2016-05-05T21:24:51.419Z,22.08
2016-05-05T21:25:51.312Z,22.15
2016-05-05T21:26:51.503Z,22.16
2016-05-05T21:27:51.537Z,22.14
2016-05-05T21:28:51.587Z,22.11
2016-05-05T21:29:51.620Z,22.14
2016-05-05T21:30:51.670Z,22.11
2016-05-05T21:31:51.703Z,22.2
2016-05-05T21:32:51.754Z,22.14
2016-05-05T21:33:51.787Z,22.14
2016-05-05T21:34:51.821Z,22.2
2016-05-05T21:35:51.870Z,22.24
2016-05-05T21:36:51.920Z,22.14
2016-05-05T21:37:51.954Z,22.16
2016-05-05T21:38:51.988Z,22.14
2016-05-05T21:39:52.022Z,22.18
2016-05-05T21:40:52.056Z,22.22
2016-05-05T21:41:52.106Z,22.18
2016-05-05T21:42:52.172Z,22.22
2016-05-05T21:43:52.189Z,22.2
2016-05-05T21:44:52.222Z,22.22
2016-05-05T21:45:52.257Z,22.22
2016-05-05T21:46:52.307Z,22.16
2016-05-05T21:47:52.185Z,22.26
2016-05-05T21:48:52.374Z,22.23
2016-05-05T21:49:52.424Z,22.2
2016-05-05T21:50:52.474Z,22.24
2016-05-05T21:51:52.507Z,22.18
2016-05-05T21:52:52.541Z,22.16
2016-05-05T21:53:52.591Z,22.24
2016-05-05T21:54:52.625Z,22.27
2016-05-05T21:55:52.909Z,22.22
2016-05-05T21:56:52.693Z,22.27
2016-05-05T21:57:52.743Z,22.2
2016-05-05T21:58:52.793Z,22.29
2016-05-05T21:59:52.826Z,22.27
2016-05-05T22:00:52.860Z,22.22
2016-05-05T22:01:52.910Z,22.2
2016-05-05T22:02:52.943Z,22.24
2016-05-05T22:03:52.978Z,22.23
2016-05-05T22:04:53.012Z,22.24
2016-05-05T22:05:53.061Z,22.29
2016-05-05T22:06:53.111Z,22.3
2016-05-05T22:07:53.145Z,22.27
2016-05-05T22:08:53.023Z,22.29
2016-05-05T22:09:53.228Z,22.26
2016-05-05T22:10:53.277Z,22.23
2016-05-05T22:11:53.296Z,22.26
2016-05-05T22:12:53.346Z,22.29
2016-05-05T22:13:53.380Z,22.23
2016-05-05T22:14:53.413Z,22.31
2016-05-05T22:15:53.464Z,22.26
2016-05-05T22:16:53.497Z,22.29
2016-05-05T22:17:53.546Z,22.3
2016-05-05T22:18:53.580Z,22.31
2016-05-05T22:19:53.630Z,22.3
2016-05-05T22:20:53.663Z,22.27
2016-05-05T22:21:53.697Z,22.31
2016-05-05T22:22:53.756Z,22.29
2016-05-05T22:23:53.795Z,22.3
2016-05-05T22:24:53.828Z,22.33
2016-05-05T22:25:54.128Z,22.3
2016-05-05T22:26:53.897Z,22.3
2016-05-05T22:27:53.946Z,22.31
2016-05-05T22:28:53.980Z,22.31
2016-05-05T22:29:54.014Z,22.27
2016-05-05T22:30:54.064Z,22.3
2016-05-05T22:31:54.097Z,22.31
2016-05-05T22:32:54.147Z,22.31
2016-05-05T22:33:54.182Z,22.3
2016-05-05T22:34:54.215Z,22.3
2016-05-05T22:35:54.265Z,22.3
2016-05-05T22:36:54.299Z,22.33
2016-05-05T22:37:54.348Z,22.3
2016-05-05T22:38:54.383Z,22.29
2016-05-05T22:39:54.416Z,22.33
2016-05-05T22:40:54.512Z,22.29
2016-05-05T22:41:54.500Z,22.3
2016-05-05T22:42:54.549Z,22.3
2016-05-05T22:43:54.583Z,22.3
2016-05-05T22:44:54.633Z,22.33
2016-05-05T22:45:54.651Z,22.3
2016-05-05T22:46:54.700Z,22.41
2016-05-05T22:47:54.595Z,22.3
2016-05-05T22:48:54.784Z,22.33
2016-05-05T22:49:54.818Z,22.33
2016-05-05T22:50:54.867Z,22.34
2016-05-05T22:51:54.902Z,22.39
2016-05-05T22:52:54.951Z,22.33
2016-05-05T22:53:54.986Z,22.38
2016-05-05T22:54:55.035Z,22.31
2016-05-05T22:55:55.069Z,22.36
2016-05-05T22:56:55.103Z,22.44
2016-05-05T22:57:55.153Z,22.29
2016-05-05T22:58:55.186Z,22.46
2016-05-05T22:59:55.220Z,22.34
2016-05-05T23:00:55.270Z,22.34
2016-05-05T23:01:55.335Z,22.41
2016-05-05T23:02:55.353Z,22.33
2016-05-05T23:03:55.388Z,22.44
2016-05-05T23:04:55.436Z,22.33
2016-05-05T23:05:55.470Z,22.44
2016-05-05T23:06:55.349Z,22.33
2016-05-05T23:07:55.554Z,22.42
2016-05-05T23:08:55.588Z,22.31
2016-05-05T23:09:55.622Z,22.36
2016-05-05T23:10:55.687Z,22.44
2016-05-05T23:11:55.705Z,22.42
2016-05-05T23:12:55.755Z,22.42
2016-05-05T23:13:55.789Z,22.44
2016-05-05T23:14:55.823Z,22.36
2016-05-05T23:15:55.873Z,22.46
2016-05-05T23:16:55.766Z,22.39
2016-05-05T23:17:55.940Z,22.42
2016-05-05T23:18:55.990Z,22.45
2016-05-05T23:19:56.024Z,22.44
2016-05-05T23:20:56.073Z,22.41
2016-05-05T23:21:56.123Z,22.46
2016-05-05T23:22:56.157Z,22.46
2016-05-05T23:23:56.191Z,22.44
2016-05-05T23:24:56.240Z,22.45
2016-05-05T23:25:56.400Z,22.44
2016-05-05T23:26:56.308Z,22.41
2016-05-05T23:27:56.343Z,22.42
2016-05-05T23:28:56.392Z,22.45
2016-05-05T23:29:56.425Z,22.44
2016-05-05T23:30:56.475Z,22.36
2016-05-05T23:31:56.509Z,22.44
2016-05-05T23:32:56.558Z,22.45
2016-05-05T23:33:56.594Z,22.44
2016-05-05T23:34:56.642Z,22.45
2016-05-05T23:35:56.677Z,22.41
2016-05-05T23:36:56.710Z,22.42
2016-05-05T23:37:56.760Z,22.46
2016-05-05T23:38:56.638Z,22.44
2016-05-05T23:39:56.828Z,22.45
2016-05-05T23:40:56.721Z,22.44
2016-05-05T23:41:56.755Z,22.41
2016-05-05T23:42:56.945Z,22.41
2016-05-05T23:43:56.995Z,22.41
2016-05-05T23:44:57.045Z,22.36
2016-05-05T23:45:57.078Z,22.41
2016-05-05T23:46:57.113Z,22.46
2016-05-05T23:47:57.162Z,22.41
2016-05-05T23:48:57.211Z,22.44
2016-05-05T23:49:57.229Z,22.41
2016-05-05T23:50:57.280Z,22.34
2016-05-05T23:51:57.313Z,22.44
2016-05-05T23:52:57.362Z,22.42
2016-05-05T23:53:57.397Z,22.41
2016-05-05T23:54:57.431Z,22.42
2016-05-05T23:55:57.496Z,22.42
2016-05-05T23:56:57.514Z,22.39
2016-05-05T23:57:57.548Z,22.42
2016-05-05T23:58:57.597Z,22.39
2016-05-05T23:59:57.632Z,22.41
